Terminal Aerodrome Forecast
Issued by NWS

Home | Current Version | Previous Version | Text Only | Print | Product List | Glossary On
Versions: 1 2 3 4 5 6 7 8 9 10 11 12 13
000
FTUS45 KGGW 201100
TAFSDY
TAF
KSDY 201140Z 2012/2112 VRB06KT P6SM VCSH OVC130
     FM201800 27010KT P6SM VCTS BKN070CB
     FM210000 VRB05KT P6SM VCSH SCT035
      AMD LTD TO CLD VIS AND WIND=

USA.gov is the U.S. government's official web portal to all federal, state and local government web resources and services.